sensor_id;sensor_type;location;lat;lon;timestamp;P1;durP1;ratioP1;P2;durP2;ratioP2
27893;SDS011;15240;50.812;4.792;2023-02-19T00:01:24;15.27;;;9.13;;
27893;SDS011;15240;50.812;4.792;2023-02-19T00:03:54;15.87;;;10.23;;
27893;SDS011;15240;50.812;4.792;2023-02-19T00:06:22;17.00;;;9.60;;
27893;SDS011;15240;50.812;4.792;2023-02-19T00:08:48;15.23;;;10.20;;
27893;SDS011;15240;50.812;4.792;2023-02-19T00:11:15;16.23;;;9.20;;
27893;SDS011;15240;50.812;4.792;2023-02-19T00:13:42;16.53;;;9.77;;
27893;SDS011;15240;50.812;4.792;2023-02-19T00:16:09;16.20;;;9.30;;
27893;SDS011;15240;50.812;4.792;2023-02-19T00:18:37;16.87;;;9.20;;
27893;SDS011;15240;50.812;4.792;2023-02-19T00:21:03;16.63;;;8.93;;
27893;SDS011;15240;50.812;4.792;2023-02-19T00:23:29;13.03;;;8.67;;
27893;SDS011;15240;50.812;4.792;2023-02-19T00:25:55;14.57;;;8.70;;
27893;SDS011;15240;50.812;4.792;2023-02-19T00:28:21;17.17;;;9.13;;
27893;SDS011;15240;50.812;4.792;2023-02-19T00:30:47;15.50;;;9.30;;
27893;SDS011;15240;50.812;4.792;2023-02-19T00:33:14;18.37;;;9.57;;
27893;SDS011;15240;50.812;4.792;2023-02-19T00:35:40;17.63;;;9.87;;
27893;SDS011;15240;50.812;4.792;2023-02-19T00:38:06;18.37;;;9.10;;
27893;SDS011;15240;50.812;4.792;2023-02-19T00:40:33;15.73;;;9.80;;
27893;SDS011;15240;50.812;4.792;2023-02-19T00:42:59;17.93;;;9.80;;
27893;SDS011;15240;50.812;4.792;2023-02-19T00:45:25;22.40;;;9.93;;
27893;SDS011;15240;50.812;4.792;2023-02-19T00:47:51;19.87;;;10.27;;
27893;SDS011;15240;50.812;4.792;2023-02-19T00:50:17;16.17;;;10.00;;
27893;SDS011;15240;50.812;4.792;2023-02-19T00:52:44;16.17;;;9.77;;
27893;SDS011;15240;50.812;4.792;2023-02-19T00:55:10;16.60;;;10.00;;
27893;SDS011;15240;50.812;4.792;2023-02-19T00:57:36;15.23;;;9.40;;
27893;SDS011;15240;50.812;4.792;2023-02-19T01:00:02;17.77;;;9.40;;
27893;SDS011;15240;50.812;4.792;2023-02-19T01:02:28;20.00;;;8.83;;
27893;SDS011;15240;50.812;4.792;2023-02-19T01:04:54;15.57;;;8.67;;
27893;SDS011;15240;50.812;4.792;2023-02-19T01:07:20;16.00;;;8.97;;
27893;SDS011;15240;50.812;4.792;2023-02-19T01:09:46;17.40;;;8.83;;
27893;SDS011;15240;50.812;4.792;2023-02-19T01:12:13;21.00;;;8.63;;
27893;SDS011;15240;50.812;4.792;2023-02-19T01:14:39;17.63;;;8.77;;
27893;SDS011;15240;50.812;4.792;2023-02-19T01:17:05;18.80;;;9.00;;
27893;SDS011;15240;50.812;4.792;2023-02-19T01:19:32;16.00;;;7.97;;
27893;SDS011;15240;50.812;4.792;2023-02-19T01:21:58;17.33;;;8.13;;
27893;SDS011;15240;50.812;4.792;2023-02-19T01:24:24;19.47;;;8.47;;
27893;SDS011;15240;50.812;4.792;2023-02-19T01:26:50;18.60;;;7.97;;
27893;SDS011;15240;50.812;4.792;2023-02-19T01:29:16;17.63;;;7.63;;
27893;SDS011;15240;50.812;4.792;2023-02-19T01:31:42;23.17;;;8.30;;
27893;SDS011;15240;50.812;4.792;2023-02-19T01:34:08;15.37;;;7.70;;
27893;SDS011;15240;50.812;4.792;2023-02-19T01:36:35;18.17;;;7.63;;
27893;SDS011;15240;50.812;4.792;2023-02-19T01:39:02;17.03;;;8.37;;
27893;SDS011;15240;50.812;4.792;2023-02-19T01:41:29;14.30;;;8.00;;
27893;SDS011;15240;50.812;4.792;2023-02-19T01:43:57;16.63;;;7.73;;
27893;SDS011;15240;50.812;4.792;2023-02-19T01:46:28;17.90;;;7.90;;
27893;SDS011;15240;50.812;4.792;2023-02-19T01:48:54;17.53;;;8.00;;
27893;SDS011;15240;50.812;4.792;2023-02-19T01:51:22;16.73;;;7.90;;
27893;SDS011;15240;50.812;4.792;2023-02-19T01:53:51;16.10;;;7.90;;
27893;SDS011;15240;50.812;4.792;2023-02-19T01:56:19;20.67;;;8.27;;
27893;SDS011;15240;50.812;4.792;2023-02-19T01:58:45;14.70;;;7.37;;
27893;SDS011;15240;50.812;4.792;2023-02-19T02:01:12;17.90;;;7.33;;
27893;SDS011;15240;50.812;4.792;2023-02-19T02:03:39;13.37;;;7.23;;
27893;SDS011;15240;50.812;4.792;2023-02-19T02:08:35;17.90;;;7.40;;
27893;SDS011;15240;50.812;4.792;2023-02-19T02:11:20;14.93;;;7.80;;
27893;SDS011;15240;50.812;4.792;2023-02-19T02:13:47;19.10;;;7.80;;
27893;SDS011;15240;50.812;4.792;2023-02-19T02:19:37;13.27;;;6.63;;
27893;SDS011;15240;50.812;4.792;2023-02-19T02:32:11;19.87;;;7.50;;
27893;SDS011;15240;50.812;4.792;2023-02-19T02:34:47;17.37;;;6.83;;
27893;SDS011;15240;50.812;4.792;2023-02-19T02:37:15;15.80;;;6.23;;
27893;SDS011;15240;50.812;4.792;2023-02-19T02:39:42;17.53;;;6.33;;
27893;SDS011;15240;50.812;4.792;2023-02-19T02:42:09;16.50;;;6.10;;
27893;SDS011;15240;50.812;4.792;2023-02-19T02:44:56;13.03;;;5.60;;
27893;SDS011;15240;50.812;4.792;2023-02-19T02:47:43;13.73;;;5.33;;
27893;SDS011;15240;50.812;4.792;2023-02-19T02:50:11;15.63;;;5.07;;
27893;SDS011;15240;50.812;4.792;2023-02-19T02:52:39;15.47;;;5.37;;
27893;SDS011;15240;50.812;4.792;2023-02-19T02:55:24;15.93;;;5.40;;
27893;SDS011;15240;50.812;4.792;2023-02-19T02:57:51;15.53;;;5.30;;
27893;SDS011;15240;50.812;4.792;2023-02-19T03:00:17;21.07;;;5.07;;
27893;SDS011;15240;50.812;4.792;2023-02-19T03:02:43;14.87;;;4.70;;
27893;SDS011;15240;50.812;4.792;2023-02-19T03:05:14;14.70;;;4.83;;
27893;SDS011;15240;50.812;4.792;2023-02-19T03:08:07;14.00;;;4.20;;
27893;SDS011;15240;50.812;4.792;2023-02-19T03:10:41;15.73;;;4.63;;
27893;SDS011;15240;50.812;4.792;2023-02-19T03:13:15;15.50;;;4.17;;
27893;SDS011;15240;50.812;4.792;2023-02-19T03:16:04;15.00;;;4.30;;
27893;SDS011;15240;50.812;4.792;2023-02-19T03:18:52;11.57;;;3.87;;
27893;SDS011;15240;50.812;4.792;2023-02-19T03:21:39;11.90;;;3.90;;
27893;SDS011;15240;50.812;4.792;2023-02-19T03:24:06;12.23;;;3.43;;
27893;SDS011;15240;50.812;4.792;2023-02-19T03:26:53;11.13;;;3.27;;
27893;SDS011;15240;50.812;4.792;2023-02-19T03:29:21;19.80;;;4.30;;
27893;SDS011;15240;50.812;4.792;2023-02-19T03:31:49;14.70;;;3.67;;
27893;SDS011;15240;50.812;4.792;2023-02-19T03:34:17;15.07;;;3.80;;
27893;SDS011;15240;50.812;4.792;2023-02-19T03:36:47;14.63;;;4.07;;
27893;SDS011;15240;50.812;4.792;2023-02-19T03:39:19;13.73;;;3.67;;
27893;SDS011;15240;50.812;4.792;2023-02-19T03:41:59;11.67;;;3.60;;
27893;SDS011;15240;50.812;4.792;2023-02-19T03:50:13;13.73;;;3.50;;
27893;SDS011;15240;50.812;4.792;2023-02-19T03:52:46;14.93;;;3.80;;
27893;SDS011;15240;50.812;4.792;2023-02-19T03:55:25;13.83;;;3.13;;
27893;SDS011;15240;50.812;4.792;2023-02-19T04:00:23;15.90;;;3.03;;
27893;SDS011;15240;50.812;4.792;2023-02-19T04:03:07;15.07;;;3.50;;
27893;SDS011;15240;50.812;4.792;2023-02-19T04:05:38;11.33;;;3.27;;
27893;SDS011;15240;50.812;4.792;2023-02-19T04:08:07;13.73;;;3.10;;
27893;SDS011;15240;50.812;4.792;2023-02-19T04:10:34;16.50;;;3.40;;
27893;SDS011;15240;50.812;4.792;2023-02-19T04:13:03;15.30;;;3.10;;
27893;SDS011;15240;50.812;4.792;2023-02-19T04:15:31;16.57;;;3.63;;
27893;SDS011;15240;50.812;4.792;2023-02-19T04:18:17;12.57;;;3.20;;
27893;SDS011;15240;50.812;4.792;2023-02-19T04:20:46;14.13;;;3.23;;
27893;SDS011;15240;50.812;4.792;2023-02-19T04:23:13;15.23;;;2.87;;
27893;SDS011;15240;50.812;4.792;2023-02-19T04:25:43;14.23;;;2.90;;
27893;SDS011;15240;50.812;4.792;2023-02-19T04:28:09;12.47;;;3.27;;
27893;SDS011;15240;50.812;4.792;2023-02-19T04:30:37;12.43;;;3.13;;
27893;SDS011;15240;50.812;4.792;2023-02-19T04:33:04;14.30;;;3.47;;
27893;SDS011;15240;50.812;4.792;2023-02-19T04:35:30;16.97;;;2.83;;
27893;SDS011;15240;50.812;4.792;2023-02-19T04:37:56;9.00;;;3.17;;
27893;SDS011;15240;50.812;4.792;2023-02-19T04:40:23;15.27;;;2.80;;
27893;SDS011;15240;50.812;4.792;2023-02-19T04:42:49;11.27;;;3.00;;
27893;SDS011;15240;50.812;4.792;2023-02-19T04:45:15;14.33;;;3.00;;
27893;SDS011;15240;50.812;4.792;2023-02-19T04:47:41;16.07;;;3.30;;
27893;SDS011;15240;50.812;4.792;2023-02-19T04:50:07;13.57;;;2.90;;
27893;SDS011;15240;50.812;4.792;2023-02-19T04:52:33;16.67;;;3.13;;
27893;SDS011;15240;50.812;4.792;2023-02-19T04:54:59;16.63;;;3.00;;
27893;SDS011;15240;50.812;4.792;2023-02-19T04:57:25;13.70;;;2.83;;
27893;SDS011;15240;50.812;4.792;2023-02-19T04:59:51;16.37;;;3.17;;
27893;SDS011;15240;50.812;4.792;2023-02-19T05:02:18;17.50;;;3.33;;
27893;SDS011;15240;50.812;4.792;2023-02-19T05:04:44;16.47;;;3.10;;
27893;SDS011;15240;50.812;4.792;2023-02-19T05:07:10;15.10;;;3.17;;
27893;SDS011;15240;50.812;4.792;2023-02-19T05:09:36;15.70;;;3.20;;
27893;SDS011;15240;50.812;4.792;2023-02-19T05:12:02;18.00;;;3.50;;
27893;SDS011;15240;50.812;4.792;2023-02-19T05:14:28;15.97;;;3.30;;
27893;SDS011;15240;50.812;4.792;2023-02-19T05:16:55;16.77;;;3.20;;
27893;SDS011;15240;50.812;4.792;2023-02-19T05:19:21;17.93;;;3.47;;
27893;SDS011;15240;50.812;4.792;2023-02-19T05:21:47;15.17;;;3.43;;
27893;SDS011;15240;50.812;4.792;2023-02-19T05:24:13;20.97;;;3.90;;
27893;SDS011;15240;50.812;4.792;2023-02-19T05:26:39;14.27;;;3.50;;
27893;SDS011;15240;50.812;4.792;2023-02-19T05:29:05;18.80;;;3.50;;
27893;SDS011;15240;50.812;4.792;2023-02-19T05:31:31;20.33;;;4.37;;
27893;SDS011;15240;50.812;4.792;2023-02-19T05:33:58;14.53;;;3.80;;
27893;SDS011;15240;50.812;4.792;2023-02-19T05:36:24;21.00;;;4.10;;
27893;SDS011;15240;50.812;4.792;2023-02-19T05:38:53;15.90;;;3.50;;
27893;SDS011;15240;50.812;4.792;2023-02-19T05:41:24;16.00;;;3.40;;
27893;SDS011;15240;50.812;4.792;2023-02-19T05:43:50;14.33;;;3.60;;
27893;SDS011;15240;50.812;4.792;2023-02-19T05:46:18;15.07;;;3.80;;
27893;SDS011;15240;50.812;4.792;2023-02-19T05:48:44;12.00;;;3.37;;
27893;SDS011;15240;50.812;4.792;2023-02-19T05:51:12;18.77;;;3.93;;
27893;SDS011;15240;50.812;4.792;2023-02-19T05:53:39;17.17;;;3.60;;
27893;SDS011;15240;50.812;4.792;2023-02-19T05:56:39;15.50;;;3.47;;
27893;SDS011;15240;50.812;4.792;2023-02-19T05:58:59;18.63;;;3.43;;
27893;SDS011;15240;50.812;4.792;2023-02-19T06:01:26;17.67;;;3.53;;
27893;SDS011;15240;50.812;4.792;2023-02-19T06:03:53;17.00;;;3.80;;
27893;SDS011;15240;50.812;4.792;2023-02-19T06:06:20;16.60;;;3.10;;
27893;SDS011;15240;50.812;4.792;2023-02-19T06:08:49;18.13;;;3.33;;
27893;SDS011;15240;50.812;4.792;2023-02-19T06:11:15;19.80;;;3.90;;
27893;SDS011;15240;50.812;4.792;2023-02-19T06:13:42;16.13;;;3.47;;
27893;SDS011;15240;50.812;4.792;2023-02-19T06:16:08;20.57;;;3.33;;
27893;SDS011;15240;50.812;4.792;2023-02-19T06:18:34;19.13;;;4.03;;
27893;SDS011;15240;50.812;4.792;2023-02-19T06:21:00;17.97;;;3.47;;
27893;SDS011;15240;50.812;4.792;2023-02-19T06:23:27;15.00;;;3.53;;
27893;SDS011;15240;50.812;4.792;2023-02-19T06:25:53;12.40;;;3.40;;
27893;SDS011;15240;50.812;4.792;2023-02-19T06:28:19;17.20;;;3.60;;
27893;SDS011;15240;50.812;4.792;2023-02-19T06:30:45;15.20;;;3.10;;
27893;SDS011;15240;50.812;4.792;2023-02-19T06:33:12;13.50;;;3.30;;
27893;SDS011;15240;50.812;4.792;2023-02-19T06:35:38;16.10;;;3.33;;
27893;SDS011;15240;50.812;4.792;2023-02-19T06:38:04;16.10;;;3.27;;
27893;SDS011;15240;50.812;4.792;2023-02-19T06:40:31;16.77;;;3.27;;
27893;SDS011;15240;50.812;4.792;2023-02-19T06:42:57;19.40;;;3.53;;
27893;SDS011;15240;50.812;4.792;2023-02-19T06:45:24;16.83;;;3.33;;
27893;SDS011;15240;50.812;4.792;2023-02-19T06:47:50;24.30;;;3.93;;
27893;SDS011;15240;50.812;4.792;2023-02-19T06:50:16;20.73;;;3.27;;
27893;SDS011;15240;50.812;4.792;2023-02-19T06:52:42;18.43;;;3.17;;
27893;SDS011;15240;50.812;4.792;2023-02-19T06:55:08;16.43;;;2.97;;
27893;SDS011;15240;50.812;4.792;2023-02-19T06:57:34;15.00;;;3.50;;
27893;SDS011;15240;50.812;4.792;2023-02-19T07:00:00;20.50;;;3.50;;
27893;SDS011;15240;50.812;4.792;2023-02-19T07:02:26;16.67;;;3.37;;
27893;SDS011;15240;50.812;4.792;2023-02-19T07:04:52;13.70;;;2.97;;
27893;SDS011;15240;50.812;4.792;2023-02-19T07:07:19;21.10;;;3.33;;
27893;SDS011;15240;50.812;4.792;2023-02-19T07:09:45;17.70;;;3.13;;
27893;SDS011;15240;50.812;4.792;2023-02-19T07:12:11;19.93;;;3.50;;
27893;SDS011;15240;50.812;4.792;2023-02-19T07:14:37;17.03;;;3.63;;
27893;SDS011;15240;50.812;4.792;2023-02-19T07:17:03;16.17;;;2.80;;
27893;SDS011;15240;50.812;4.792;2023-02-19T07:19:29;15.10;;;2.90;;
27893;SDS011;15240;50.812;4.792;2023-02-19T07:21:55;14.90;;;3.23;;
27893;SDS011;15240;50.812;4.792;2023-02-19T07:24:21;14.73;;;3.27;;
27893;SDS011;15240;50.812;4.792;2023-02-19T07:26:48;13.43;;;2.90;;
27893;SDS011;15240;50.812;4.792;2023-02-19T07:29:14;17.90;;;3.13;;
27893;SDS011;15240;50.812;4.792;2023-02-19T07:31:40;17.37;;;3.43;;
27893;SDS011;15240;50.812;4.792;2023-02-19T07:34:07;18.30;;;3.07;;
27893;SDS011;15240;50.812;4.792;2023-02-19T07:36:33;17.30;;;3.40;;
27893;SDS011;15240;50.812;4.792;2023-02-19T07:38:59;17.23;;;3.37;;
27893;SDS011;15240;50.812;4.792;2023-02-19T07:41:25;18.03;;;3.30;;
27893;SDS011;15240;50.812;4.792;2023-02-19T07:43:52;16.80;;;3.40;;
27893;SDS011;15240;50.812;4.792;2023-02-19T07:46:18;15.80;;;3.50;;
27893;SDS011;15240;50.812;4.792;2023-02-19T07:48:44;17.73;;;3.37;;
27893;SDS011;15240;50.812;4.792;2023-02-19T07:51:11;16.03;;;3.60;;
27893;SDS011;15240;50.812;4.792;2023-02-19T07:53:40;19.33;;;3.60;;
27893;SDS011;15240;50.812;4.792;2023-02-19T07:56:07;14.53;;;2.97;;
27893;SDS011;15240;50.812;4.792;2023-02-19T07:58:34;13.87;;;2.90;;
27893;SDS011;15240;50.812;4.792;2023-02-19T08:01:14;16.00;;;3.47;;
27893;SDS011;15240;50.812;4.792;2023-02-19T08:03:41;16.50;;;3.37;;
27893;SDS011;15240;50.812;4.792;2023-02-19T08:06:08;14.57;;;3.33;;
27893;SDS011;15240;50.812;4.792;2023-02-19T08:08:35;14.43;;;3.27;;
27893;SDS011;15240;50.812;4.792;2023-02-19T08:11:01;16.50;;;3.27;;
27893;SDS011;15240;50.812;4.792;2023-02-19T08:13:49;13.90;;;3.03;;
27893;SDS011;15240;50.812;4.792;2023-02-19T08:16:16;8.53;;;3.03;;
27893;SDS011;15240;50.812;4.792;2023-02-19T08:18:44;12.93;;;3.37;;
27893;SDS011;15240;50.812;4.792;2023-02-19T08:21:10;14.70;;;3.30;;
27893;SDS011;15240;50.812;4.792;2023-02-19T08:23:36;15.07;;;3.70;;
27893;SDS011;15240;50.812;4.792;2023-02-19T08:26:04;13.13;;;3.10;;
27893;SDS011;15240;50.812;4.792;2023-02-19T08:28:30;14.30;;;3.00;;
27893;SDS011;15240;50.812;4.792;2023-02-19T08:31:00;12.83;;;3.23;;
27893;SDS011;15240;50.812;4.792;2023-02-19T08:33:28;19.80;;;3.93;;
27893;SDS011;15240;50.812;4.792;2023-02-19T08:35:54;14.27;;;2.90;;
27893;SDS011;15240;50.812;4.792;2023-02-19T08:38:20;15.23;;;3.70;;
27893;SDS011;15240;50.812;4.792;2023-02-19T08:40:47;12.23;;;3.73;;
27893;SDS011;15240;50.812;4.792;2023-02-19T08:43:14;14.23;;;4.20;;
27893;SDS011;15240;50.812;4.792;2023-02-19T08:45:41;14.77;;;4.80;;
27893;SDS011;15240;50.812;4.792;2023-02-19T08:48:07;16.27;;;4.10;;
27893;SDS011;15240;50.812;4.792;2023-02-19T08:50:34;18.20;;;5.23;;
27893;SDS011;15240;50.812;4.792;2023-02-19T08:53:00;14.77;;;5.03;;
27893;SDS011;15240;50.812;4.792;2023-02-19T09:04:24;15.80;;;3.90;;
27893;SDS011;15240;50.812;4.792;2023-02-19T09:06:50;13.87;;;4.20;;
27893;SDS011;15240;50.812;4.792;2023-02-19T09:09:16;13.40;;;3.70;;
27893;SDS011;15240;50.812;4.792;2023-02-19T09:14:46;20.27;;;6.07;;
27893;SDS011;15240;50.812;4.792;2023-02-19T09:17:12;15.70;;;4.93;;
27893;SDS011;15240;50.812;4.792;2023-02-19T09:19:39;19.70;;;6.10;;
27893;SDS011;15240;50.812;4.792;2023-02-19T09:22:05;16.83;;;4.70;;
27893;SDS011;15240;50.812;4.792;2023-02-19T09:24:31;19.73;;;7.07;;
27893;SDS011;15240;50.812;4.792;2023-02-19T09:26:57;13.27;;;4.23;;
27893;SDS011;15240;50.812;4.792;2023-02-19T09:29:24;12.60;;;3.70;;
27893;SDS011;15240;50.812;4.792;2023-02-19T09:31:54;13.97;;;3.97;;
27893;SDS011;15240;50.812;4.792;2023-02-19T09:34:23;14.97;;;4.50;;
27893;SDS011;15240;50.812;4.792;2023-02-19T09:36:49;11.47;;;4.33;;
27893;SDS011;15240;50.812;4.792;2023-02-19T09:39:16;15.33;;;4.20;;
27893;SDS011;15240;50.812;4.792;2023-02-19T09:41:46;10.87;;;4.03;;
27893;SDS011;15240;50.812;4.792;2023-02-19T09:44:15;14.87;;;4.90;;
27893;SDS011;15240;50.812;4.792;2023-02-19T09:46:44;14.23;;;5.20;;
27893;SDS011;15240;50.812;4.792;2023-02-19T09:51:50;14.93;;;4.33;;
27893;SDS011;15240;50.812;4.792;2023-02-19T09:54:19;12.60;;;4.30;;
27893;SDS011;15240;50.812;4.792;2023-02-19T09:56:46;14.67;;;4.27;;
27893;SDS011;15240;50.812;4.792;2023-02-19T09:59:18;19.00;;;3.90;;
27893;SDS011;15240;50.812;4.792;2023-02-19T10:01:46;13.10;;;3.90;;
27893;SDS011;15240;50.812;4.792;2023-02-19T10:04:12;12.20;;;4.37;;
27893;SDS011;15240;50.812;4.792;2023-02-19T10:06:44;11.93;;;3.43;;
27893;SDS011;15240;50.812;4.792;2023-02-19T10:09:22;15.50;;;3.57;;
27893;SDS011;15240;50.812;4.792;2023-02-19T10:11:50;10.50;;;3.00;;
27893;SDS011;15240;50.812;4.792;2023-02-19T10:14:28;14.20;;;3.33;;
27893;SDS011;15240;50.812;4.792;2023-02-19T10:17:01;14.10;;;3.57;;
27893;SDS011;15240;50.812;4.792;2023-02-19T10:19:29;9.87;;;3.43;;
27893;SDS011;15240;50.812;4.792;2023-02-19T10:21:55;11.10;;;3.40;;
27893;SDS011;15240;50.812;4.792;2023-02-19T10:24:25;10.83;;;3.50;;
27893;SDS011;15240;50.812;4.792;2023-02-19T10:26:51;12.37;;;3.60;;
27893;SDS011;15240;50.812;4.792;2023-02-19T10:29:18;10.93;;;3.77;;
27893;SDS011;15240;50.812;4.792;2023-02-19T10:31:45;13.13;;;3.57;;
27893;SDS011;15240;50.812;4.792;2023-02-19T10:34:16;14.53;;;4.27;;
27893;SDS011;15240;50.812;4.792;2023-02-19T10:36:42;13.30;;;4.27;;
27893;SDS011;15240;50.812;4.792;2023-02-19T10:39:28;9.53;;;3.50;;
27893;SDS011;15240;50.812;4.792;2023-02-19T10:41:56;14.77;;;3.70;;
27893;SDS011;15240;50.812;4.792;2023-02-19T10:44:24;11.87;;;3.53;;
27893;SDS011;15240;50.812;4.792;2023-02-19T10:46:52;14.30;;;4.20;;
27893;SDS011;15240;50.812;4.792;2023-02-19T10:49:31;14.07;;;4.60;;
27893;SDS011;15240;50.812;4.792;2023-02-19T10:52:00;13.30;;;3.87;;
27893;SDS011;15240;50.812;4.792;2023-02-19T10:54:30;11.83;;;4.00;;
27893;SDS011;15240;50.812;4.792;2023-02-19T10:59:59;13.53;;;5.07;;
27893;SDS011;15240;50.812;4.792;2023-02-19T11:02:26;20.23;;;7.63;;
27893;SDS011;15240;50.812;4.792;2023-02-19T11:07:30;10.47;;;4.43;;
27893;SDS011;15240;50.812;4.792;2023-02-19T11:09:57;11.30;;;3.80;;
27893;SDS011;15240;50.812;4.792;2023-02-19T11:12:31;10.93;;;3.80;;
27893;SDS011;15240;50.812;4.792;2023-02-19T11:17:42;12.90;;;3.93;;
27893;SDS011;15240;50.812;4.792;2023-02-19T11:20:15;11.30;;;4.37;;
27893;SDS011;15240;50.812;4.792;2023-02-19T11:22:42;10.87;;;4.17;;
27893;SDS011;15240;50.812;4.792;2023-02-19T11:30:38;16.47;;;8.30;;
27893;SDS011;15240;50.812;4.792;2023-02-19T11:35:46;16.80;;;7.60;;
27893;SDS011;15240;50.812;4.792;2023-02-19T11:38:14;14.27;;;5.67;;
27893;SDS011;15240;50.812;4.792;2023-02-19T11:45:53;12.50;;;4.80;;
27893;SDS011;15240;50.812;4.792;2023-02-19T11:53:26;13.83;;;4.60;;
27893;SDS011;15240;50.812;4.792;2023-02-19T12:01:06;12.70;;;4.23;;
27893;SDS011;15240;50.812;4.792;2023-02-19T12:19:10;16.27;;;5.27;;
27893;SDS011;15240;50.812;4.792;2023-02-19T12:21:43;11.97;;;4.47;;
27893;SDS011;15240;50.812;4.792;2023-02-19T12:44:39;15.80;;;4.30;;
27893;SDS011;15240;50.812;4.792;2023-02-19T12:47:07;11.70;;;4.30;;
27893;SDS011;15240;50.812;4.792;2023-02-19T12:49:39;13.90;;;5.07;;
27893;SDS011;15240;50.812;4.792;2023-02-19T12:52:12;10.63;;;4.57;;
27893;SDS011;15240;50.812;4.792;2023-02-19T12:54:41;13.27;;;3.83;;
27893;SDS011;15240;50.812;4.792;2023-02-19T12:57:19;10.67;;;4.27;;
27893;SDS011;15240;50.812;4.792;2023-02-19T13:02:21;8.70;;;3.77;;
27893;SDS011;15240;50.812;4.792;2023-02-19T13:04:55;8.00;;;4.23;;
27893;SDS011;15240;50.812;4.792;2023-02-19T13:09:54;11.63;;;4.33;;
27893;SDS011;15240;50.812;4.792;2023-02-19T13:12:25;11.27;;;3.80;;
27893;SDS011;15240;50.812;4.792;2023-02-19T13:17:36;8.70;;;3.57;;
27893;SDS011;15240;50.812;4.792;2023-02-19T13:20:13;9.63;;;3.77;;
27893;SDS011;15240;50.812;4.792;2023-02-19T13:28:49;9.70;;;3.50;;
27893;SDS011;15240;50.812;4.792;2023-02-19T13:31:29;9.23;;;4.23;;
27893;SDS011;15240;50.812;4.792;2023-02-19T13:34:13;6.50;;;3.57;;
27893;SDS011;15240;50.812;4.792;2023-02-19T13:36:43;9.83;;;4.37;;
27893;SDS011;15240;50.812;4.792;2023-02-19T13:39:12;11.33;;;4.30;;
27893;SDS011;15240;50.812;4.792;2023-02-19T13:41:42;9.40;;;4.57;;
27893;SDS011;15240;50.812;4.792;2023-02-19T13:44:34;9.83;;;4.17;;
27893;SDS011;15240;50.812;4.792;2023-02-19T13:47:00;10.30;;;3.93;;
27893;SDS011;15240;50.812;4.792;2023-02-19T13:52:00;10.30;;;4.60;;
27893;SDS011;15240;50.812;4.792;2023-02-19T13:54:28;12.30;;;4.03;;
27893;SDS011;15240;50.812;4.792;2023-02-19T13:59:40;8.37;;;4.07;;
27893;SDS011;15240;50.812;4.792;2023-02-19T14:02:12;8.57;;;4.20;;
27893;SDS011;15240;50.812;4.792;2023-02-19T14:04:41;10.43;;;4.47;;
27893;SDS011;15240;50.812;4.792;2023-02-19T14:17:01;12.07;;;4.57;;
27893;SDS011;15240;50.812;4.792;2023-02-19T14:24:52;8.07;;;4.80;;
27893;SDS011;15240;50.812;4.792;2023-02-19T14:27:18;9.10;;;4.67;;
27893;SDS011;15240;50.812;4.792;2023-02-19T14:29:45;13.77;;;5.00;;
27893;SDS011;15240;50.812;4.792;2023-02-19T14:32:13;13.43;;;5.10;;
27893;SDS011;15240;50.812;4.792;2023-02-19T14:34:43;12.63;;;5.43;;
27893;SDS011;15240;50.812;4.792;2023-02-19T14:37:16;13.80;;;5.07;;
27893;SDS011;15240;50.812;4.792;2023-02-19T14:39:44;12.43;;;5.50;;
27893;SDS011;15240;50.812;4.792;2023-02-19T14:44:45;9.10;;;4.90;;
27893;SDS011;15240;50.812;4.792;2023-02-19T14:47:19;9.17;;;4.50;;
27893;SDS011;15240;50.812;4.792;2023-02-19T14:54:42;9.17;;;4.90;;
27893;SDS011;15240;50.812;4.792;2023-02-19T14:57:14;10.30;;;5.20;;
27893;SDS011;15240;50.812;4.792;2023-02-19T14:59:50;13.10;;;5.00;;
27893;SDS011;15240;50.812;4.792;2023-02-19T15:02:18;11.07;;;5.20;;
27893;SDS011;15240;50.812;4.792;2023-02-19T15:04:50;9.73;;;4.73;;
27893;SDS011;15240;50.812;4.792;2023-02-19T15:07:17;10.93;;;5.17;;
27893;SDS011;15240;50.812;4.792;2023-02-19T15:09:46;9.37;;;5.10;;
27893;SDS011;15240;50.812;4.792;2023-02-19T15:12:20;12.00;;;4.87;;
27893;SDS011;15240;50.812;4.792;2023-02-19T15:14:48;8.00;;;4.87;;
27893;SDS011;15240;50.812;4.792;2023-02-19T15:17:18;10.60;;;5.37;;
27893;SDS011;15240;50.812;4.792;2023-02-19T15:19:47;12.30;;;5.30;;
27893;SDS011;15240;50.812;4.792;2023-02-19T15:22:13;11.07;;;4.80;;
27893;SDS011;15240;50.812;4.792;2023-02-19T15:24:42;10.43;;;4.53;;
27893;SDS011;15240;50.812;4.792;2023-02-19T15:27:22;7.23;;;3.93;;
27893;SDS011;15240;50.812;4.792;2023-02-19T15:29:51;7.63;;;4.17;;
27893;SDS011;15240;50.812;4.792;2023-02-19T15:32:23;9.93;;;4.23;;
27893;SDS011;15240;50.812;4.792;2023-02-19T15:34:57;6.67;;;4.90;;
27893;SDS011;15240;50.812;4.792;2023-02-19T15:37:24;8.77;;;4.73;;
27893;SDS011;15240;50.812;4.792;2023-02-19T15:39:51;10.83;;;5.03;;
27893;SDS011;15240;50.812;4.792;2023-02-19T15:42:25;7.57;;;5.00;;
27893;SDS011;15240;50.812;4.792;2023-02-19T15:44:56;9.20;;;5.20;;
27893;SDS011;15240;50.812;4.792;2023-02-19T15:50:06;9.97;;;5.00;;
27893;SDS011;15240;50.812;4.792;2023-02-19T16:00:33;7.90;;;4.47;;
27893;SDS011;15240;50.812;4.792;2023-02-19T16:03:00;9.70;;;5.73;;
27893;SDS011;15240;50.812;4.792;2023-02-19T16:05:26;9.70;;;4.80;;
27893;SDS011;15240;50.812;4.792;2023-02-19T16:10:56;8.50;;;5.33;;
27893;SDS011;15240;50.812;4.792;2023-02-19T16:13:23;10.93;;;5.93;;
27893;SDS011;15240;50.812;4.792;2023-02-19T16:15:57;11.60;;;7.20;;
27893;SDS011;15240;50.812;4.792;2023-02-19T16:18:23;8.17;;;5.43;;
27893;SDS011;15240;50.812;4.792;2023-02-19T16:20:49;11.63;;;4.83;;
27893;SDS011;15240;50.812;4.792;2023-02-19T16:23:16;6.50;;;4.17;;
27893;SDS011;15240;50.812;4.792;2023-02-19T16:25:46;8.53;;;3.80;;
27893;SDS011;15240;50.812;4.792;2023-02-19T16:28:13;8.07;;;4.53;;
27893;SDS011;15240;50.812;4.792;2023-02-19T16:30:44;8.17;;;5.07;;
27893;SDS011;15240;50.812;4.792;2023-02-19T16:35:56;6.17;;;4.60;;
27893;SDS011;15240;50.812;4.792;2023-02-19T16:38:22;7.23;;;4.30;;
27893;SDS011;15240;50.812;4.792;2023-02-19T16:45:42;5.77;;;3.50;;
27893;SDS011;15240;50.812;4.792;2023-02-19T16:48:09;6.77;;;3.63;;
27893;SDS011;15240;50.812;4.792;2023-02-19T16:50:36;6.23;;;3.83;;
27893;SDS011;15240;50.812;4.792;2023-02-19T16:53:05;8.00;;;3.70;;
27893;SDS011;15240;50.812;4.792;2023-02-19T16:55:32;7.87;;;4.27;;
27893;SDS011;15240;50.812;4.792;2023-02-19T16:58:01;9.33;;;4.47;;
27893;SDS011;15240;50.812;4.792;2023-02-19T17:00:28;8.40;;;4.30;;
27893;SDS011;15240;50.812;4.792;2023-02-19T17:02:58;8.20;;;4.40;;
27893;SDS011;15240;50.812;4.792;2023-02-19T17:05:26;9.43;;;4.63;;
27893;SDS011;15240;50.812;4.792;2023-02-19T17:07:53;9.43;;;5.00;;
27893;SDS011;15240;50.812;4.792;2023-02-19T17:10:24;10.67;;;5.03;;
27893;SDS011;15240;50.812;4.792;2023-02-19T17:12:51;8.87;;;5.20;;
27893;SDS011;15240;50.812;4.792;2023-02-19T17:15:17;10.50;;;4.90;;
27893;SDS011;15240;50.812;4.792;2023-02-19T17:17:43;10.40;;;4.90;;
27893;SDS011;15240;50.812;4.792;2023-02-19T17:20:17;7.00;;;5.10;;
27893;SDS011;15240;50.812;4.792;2023-02-19T17:22:45;10.67;;;5.50;;
27893;SDS011;15240;50.812;4.792;2023-02-19T17:25:11;8.67;;;5.43;;
27893;SDS011;15240;50.812;4.792;2023-02-19T17:27:37;14.13;;;5.67;;
27893;SDS011;15240;50.812;4.792;2023-02-19T17:30:09;9.90;;;5.60;;
27893;SDS011;15240;50.812;4.792;2023-02-19T17:32:36;10.73;;;5.80;;
27893;SDS011;15240;50.812;4.792;2023-02-19T17:35:02;12.47;;;6.67;;